ADDS TAF Data INFO
IDs: Format: Raw Decoded Include METARs

Data at: 1934 UTC 18 Jan 2018

KLEX 181854Z 22015KT 10SM CLR M03/M11 A3034 RMK AO2 SLP291 T10331111 $

KLEX 181720Z 1818/1918 22011G18KT P6SM SKC
  FM182300 21010KT P6SM SKC